sensor_id;sensor_type;location;lat;lon;timestamp;P1;durP1;ratioP1;P2;durP2;ratioP2
19679;SDS011;9989;48.962;9.182;2023-05-07T00:01:36;6.83;;;3.70;;
19679;SDS011;9989;48.962;9.182;2023-05-07T00:04:01;7.87;;;4.07;;
19679;SDS011;9989;48.962;9.182;2023-05-07T00:06:28;7.20;;;3.97;;
19679;SDS011;9989;48.962;9.182;2023-05-07T00:08:54;7.83;;;4.20;;
19679;SDS011;9989;48.962;9.182;2023-05-07T00:11:21;7.83;;;4.20;;
19679;SDS011;9989;48.962;9.182;2023-05-07T00:13:47;9.47;;;4.70;;
19679;SDS011;9989;48.962;9.182;2023-05-07T00:16:13;9.53;;;4.60;;
19679;SDS011;9989;48.962;9.182;2023-05-07T00:18:39;8.33;;;4.20;;
19679;SDS011;9989;48.962;9.182;2023-05-07T00:21:04;8.03;;;4.40;;
19679;SDS011;9989;48.962;9.182;2023-05-07T00:23:30;7.97;;;4.83;;
19679;SDS011;9989;48.962;9.182;2023-05-07T00:25:56;8.07;;;4.47;;
19679;SDS011;9989;48.962;9.182;2023-05-07T00:28:21;8.57;;;4.53;;
19679;SDS011;9989;48.962;9.182;2023-05-07T00:30:47;8.00;;;4.67;;
19679;SDS011;9989;48.962;9.182;2023-05-07T00:33:13;8.37;;;4.57;;
19679;SDS011;9989;48.962;9.182;2023-05-07T00:35:38;8.77;;;4.80;;
19679;SDS011;9989;48.962;9.182;2023-05-07T00:38:04;8.37;;;4.60;;
19679;SDS011;9989;48.962;9.182;2023-05-07T00:40:30;8.00;;;4.47;;
19679;SDS011;9989;48.962;9.182;2023-05-07T00:42:55;9.47;;;4.97;;
19679;SDS011;9989;48.962;9.182;2023-05-07T00:45:23;8.60;;;4.40;;
19679;SDS011;9989;48.962;9.182;2023-05-07T00:47:53;7.93;;;4.27;;
19679;SDS011;9989;48.962;9.182;2023-05-07T00:50:20;9.67;;;5.27;;
19679;SDS011;9989;48.962;9.182;2023-05-07T00:52:46;8.00;;;3.90;;
19679;SDS011;9989;48.962;9.182;2023-05-07T00:55:12;7.87;;;4.23;;
19679;SDS011;9989;48.962;9.182;2023-05-07T00:57:40;7.60;;;4.13;;
19679;SDS011;9989;48.962;9.182;2023-05-07T01:00:06;9.40;;;5.00;;
19679;SDS011;9989;48.962;9.182;2023-05-07T01:02:34;10.00;;;5.43;;
19679;SDS011;9989;48.962;9.182;2023-05-07T01:05:00;8.93;;;5.00;;
19679;SDS011;9989;48.962;9.182;2023-05-07T01:07:29;8.73;;;4.40;;
19679;SDS011;9989;48.962;9.182;2023-05-07T01:09:55;15.10;;;4.60;;
19679;SDS011;9989;48.962;9.182;2023-05-07T01:12:22;8.53;;;4.33;;
19679;SDS011;9989;48.962;9.182;2023-05-07T01:14:48;7.37;;;3.70;;
19679;SDS011;9989;48.962;9.182;2023-05-07T01:17:16;8.80;;;4.80;;
19679;SDS011;9989;48.962;9.182;2023-05-07T01:19:42;9.17;;;4.83;;
19679;SDS011;9989;48.962;9.182;2023-05-07T01:22:09;12.20;;;5.13;;
19679;SDS011;9989;48.962;9.182;2023-05-07T01:24:36;7.63;;;4.47;;
19679;SDS011;9989;48.962;9.182;2023-05-07T01:27:03;8.67;;;4.13;;
19679;SDS011;9989;48.962;9.182;2023-05-07T01:29:29;7.33;;;3.50;;
19679;SDS011;9989;48.962;9.182;2023-05-07T01:31:59;6.93;;;3.73;;
19679;SDS011;9989;48.962;9.182;2023-05-07T01:34:27;7.93;;;3.90;;
19679;SDS011;9989;48.962;9.182;2023-05-07T01:36:55;8.70;;;3.77;;
19679;SDS011;9989;48.962;9.182;2023-05-07T01:39:26;8.50;;;3.73;;
19679;SDS011;9989;48.962;9.182;2023-05-07T01:41:54;7.40;;;3.70;;
19679;SDS011;9989;48.962;9.182;2023-05-07T01:44:21;8.60;;;4.17;;
19679;SDS011;9989;48.962;9.182;2023-05-07T01:46:47;7.17;;;4.00;;
19679;SDS011;9989;48.962;9.182;2023-05-07T01:49:14;6.93;;;3.77;;
19679;SDS011;9989;48.962;9.182;2023-05-07T01:51:41;7.40;;;3.67;;
19679;SDS011;9989;48.962;9.182;2023-05-07T01:54:07;7.60;;;3.67;;
19679;SDS011;9989;48.962;9.182;2023-05-07T01:56:33;6.03;;;3.20;;
19679;SDS011;9989;48.962;9.182;2023-05-07T01:58:59;8.73;;;4.03;;
19679;SDS011;9989;48.962;9.182;2023-05-07T02:01:25;7.53;;;3.80;;
19679;SDS011;9989;48.962;9.182;2023-05-07T02:03:51;8.90;;;4.20;;
19679;SDS011;9989;48.962;9.182;2023-05-07T02:06:16;8.93;;;4.03;;
19679;SDS011;9989;48.962;9.182;2023-05-07T02:08:42;7.10;;;3.50;;
19679;SDS011;9989;48.962;9.182;2023-05-07T02:11:08;6.70;;;3.80;;
19679;SDS011;9989;48.962;9.182;2023-05-07T02:13:33;9.50;;;4.33;;
19679;SDS011;9989;48.962;9.182;2023-05-07T02:16:00;7.67;;;4.10;;
19679;SDS011;9989;48.962;9.182;2023-05-07T02:18:26;8.27;;;3.80;;
19679;SDS011;9989;48.962;9.182;2023-05-07T02:20:51;8.07;;;4.57;;
19679;SDS011;9989;48.962;9.182;2023-05-07T02:23:17;8.60;;;4.83;;
19679;SDS011;9989;48.962;9.182;2023-05-07T02:25:43;7.93;;;4.33;;
19679;SDS011;9989;48.962;9.182;2023-05-07T02:28:08;8.60;;;4.53;;
19679;SDS011;9989;48.962;9.182;2023-05-07T02:30:35;7.60;;;4.47;;
19679;SDS011;9989;48.962;9.182;2023-05-07T02:33:01;8.53;;;4.40;;
19679;SDS011;9989;48.962;9.182;2023-05-07T02:35:27;7.90;;;4.17;;
19679;SDS011;9989;48.962;9.182;2023-05-07T02:37:53;8.37;;;4.30;;
19679;SDS011;9989;48.962;9.182;2023-05-07T02:40:18;8.00;;;4.00;;
19679;SDS011;9989;48.962;9.182;2023-05-07T02:42:44;7.90;;;4.07;;
19679;SDS011;9989;48.962;9.182;2023-05-07T02:45:10;8.37;;;4.30;;
19679;SDS011;9989;48.962;9.182;2023-05-07T02:47:35;7.37;;;4.27;;
19679;SDS011;9989;48.962;9.182;2023-05-07T02:50:01;8.80;;;3.90;;
19679;SDS011;9989;48.962;9.182;2023-05-07T02:52:27;10.43;;;4.70;;
19679;SDS011;9989;48.962;9.182;2023-05-07T02:54:52;8.20;;;4.07;;
19679;SDS011;9989;48.962;9.182;2023-05-07T02:57:18;6.87;;;3.63;;
19679;SDS011;9989;48.962;9.182;2023-05-07T02:59:44;6.90;;;3.60;;
19679;SDS011;9989;48.962;9.182;2023-05-07T03:02:09;6.80;;;3.47;;
19679;SDS011;9989;48.962;9.182;2023-05-07T03:04:35;7.90;;;3.90;;
19679;SDS011;9989;48.962;9.182;2023-05-07T03:07:01;6.80;;;3.80;;
19679;SDS011;9989;48.962;9.182;2023-05-07T03:09:26;7.57;;;3.53;;
19679;SDS011;9989;48.962;9.182;2023-05-07T03:11:52;7.03;;;3.53;;
19679;SDS011;9989;48.962;9.182;2023-05-07T03:14:18;7.13;;;3.40;;
19679;SDS011;9989;48.962;9.182;2023-05-07T03:16:43;6.57;;;3.37;;
19679;SDS011;9989;48.962;9.182;2023-05-07T03:19:09;7.73;;;3.70;;
19679;SDS011;9989;48.962;9.182;2023-05-07T03:21:34;6.63;;;3.40;;
19679;SDS011;9989;48.962;9.182;2023-05-07T03:24:00;9.40;;;3.90;;
19679;SDS011;9989;48.962;9.182;2023-05-07T03:26:26;6.70;;;3.47;;
19679;SDS011;9989;48.962;9.182;2023-05-07T03:28:51;7.27;;;3.80;;
19679;SDS011;9989;48.962;9.182;2023-05-07T03:31:17;8.03;;;4.27;;
19679;SDS011;9989;48.962;9.182;2023-05-07T03:33:53;8.40;;;3.87;;
19679;SDS011;9989;48.962;9.182;2023-05-07T03:36:20;7.83;;;4.30;;
19679;SDS011;9989;48.962;9.182;2023-05-07T03:38:46;9.90;;;3.73;;
19679;SDS011;9989;48.962;9.182;2023-05-07T03:41:12;8.23;;;4.50;;
19679;SDS011;9989;48.962;9.182;2023-05-07T03:43:38;7.00;;;3.70;;
19679;SDS011;9989;48.962;9.182;2023-05-07T03:46:03;7.23;;;3.87;;
19679;SDS011;9989;48.962;9.182;2023-05-07T03:48:29;8.27;;;4.23;;
19679;SDS011;9989;48.962;9.182;2023-05-07T03:50:55;9.07;;;3.93;;
19679;SDS011;9989;48.962;9.182;2023-05-07T03:53:22;7.30;;;4.00;;
19679;SDS011;9989;48.962;9.182;2023-05-07T03:55:48;7.10;;;3.80;;
19679;SDS011;9989;48.962;9.182;2023-05-07T03:58:13;6.83;;;3.57;;
19679;SDS011;9989;48.962;9.182;2023-05-07T04:00:39;7.73;;;3.93;;
19679;SDS011;9989;48.962;9.182;2023-05-07T04:03:05;7.03;;;3.83;;
19679;SDS011;9989;48.962;9.182;2023-05-07T04:05:31;7.17;;;4.00;;
19679;SDS011;9989;48.962;9.182;2023-05-07T04:07:57;8.33;;;4.57;;
19679;SDS011;9989;48.962;9.182;2023-05-07T04:10:23;8.10;;;4.73;;
19679;SDS011;9989;48.962;9.182;2023-05-07T04:12:49;9.17;;;4.10;;
19679;SDS011;9989;48.962;9.182;2023-05-07T04:15:15;8.20;;;3.90;;
19679;SDS011;9989;48.962;9.182;2023-05-07T04:17:41;8.47;;;4.27;;
19679;SDS011;9989;48.962;9.182;2023-05-07T04:20:08;8.13;;;4.40;;
19679;SDS011;9989;48.962;9.182;2023-05-07T04:22:35;10.53;;;4.63;;
19679;SDS011;9989;48.962;9.182;2023-05-07T04:25:01;7.33;;;3.93;;
19679;SDS011;9989;48.962;9.182;2023-05-07T04:27:27;7.77;;;4.23;;
19679;SDS011;9989;48.962;9.182;2023-05-07T04:29:53;8.83;;;4.57;;
19679;SDS011;9989;48.962;9.182;2023-05-07T04:32:21;8.67;;;4.60;;
19679;SDS011;9989;48.962;9.182;2023-05-07T04:34:47;9.87;;;4.33;;
19679;SDS011;9989;48.962;9.182;2023-05-07T04:37:13;8.83;;;4.70;;
19679;SDS011;9989;48.962;9.182;2023-05-07T04:39:38;11.43;;;5.00;;
19679;SDS011;9989;48.962;9.182;2023-05-07T04:42:04;8.43;;;4.83;;
19679;SDS011;9989;48.962;9.182;2023-05-07T04:44:30;8.37;;;4.80;;
19679;SDS011;9989;48.962;9.182;2023-05-07T04:46:56;8.57;;;4.77;;
19679;SDS011;9989;48.962;9.182;2023-05-07T04:49:22;8.67;;;4.50;;
19679;SDS011;9989;48.962;9.182;2023-05-07T04:51:48;9.00;;;4.60;;
19679;SDS011;9989;48.962;9.182;2023-05-07T04:54:13;10.10;;;5.10;;
19679;SDS011;9989;48.962;9.182;2023-05-07T04:56:39;9.60;;;5.03;;
19679;SDS011;9989;48.962;9.182;2023-05-07T04:59:05;10.17;;;5.83;;
19679;SDS011;9989;48.962;9.182;2023-05-07T05:01:31;10.40;;;4.93;;
19679;SDS011;9989;48.962;9.182;2023-05-07T05:03:56;9.17;;;5.00;;
19679;SDS011;9989;48.962;9.182;2023-05-07T05:06:22;9.03;;;5.00;;
19679;SDS011;9989;48.962;9.182;2023-05-07T05:08:48;8.90;;;5.10;;
19679;SDS011;9989;48.962;9.182;2023-05-07T05:11:13;9.70;;;4.73;;
19679;SDS011;9989;48.962;9.182;2023-05-07T05:13:39;8.70;;;4.63;;
19679;SDS011;9989;48.962;9.182;2023-05-07T05:16:05;10.07;;;5.00;;
19679;SDS011;9989;48.962;9.182;2023-05-07T05:18:31;12.40;;;5.47;;
19679;SDS011;9989;48.962;9.182;2023-05-07T05:20:57;12.63;;;5.37;;
19679;SDS011;9989;48.962;9.182;2023-05-07T05:23:23;10.50;;;5.57;;
19679;SDS011;9989;48.962;9.182;2023-05-07T05:25:49;9.43;;;4.90;;
19679;SDS011;9989;48.962;9.182;2023-05-07T05:28:15;8.63;;;4.47;;
19679;SDS011;9989;48.962;9.182;2023-05-07T05:30:40;8.20;;;4.30;;
19679;SDS011;9989;48.962;9.182;2023-05-07T05:33:06;8.80;;;4.53;;
19679;SDS011;9989;48.962;9.182;2023-05-07T05:35:32;8.30;;;4.77;;
19679;SDS011;9989;48.962;9.182;2023-05-07T05:37:57;8.50;;;4.90;;
19679;SDS011;9989;48.962;9.182;2023-05-07T05:40:23;12.00;;;5.03;;
19679;SDS011;9989;48.962;9.182;2023-05-07T05:42:48;9.13;;;5.20;;
19679;SDS011;9989;48.962;9.182;2023-05-07T05:45:14;10.23;;;4.80;;
19679;SDS011;9989;48.962;9.182;2023-05-07T05:47:40;8.87;;;4.20;;
19679;SDS011;9989;48.962;9.182;2023-05-07T05:50:06;8.70;;;4.83;;
19679;SDS011;9989;48.962;9.182;2023-05-07T05:52:32;8.13;;;4.43;;
19679;SDS011;9989;48.962;9.182;2023-05-07T05:54:58;8.57;;;4.90;;
19679;SDS011;9989;48.962;9.182;2023-05-07T05:57:23;9.57;;;5.30;;
19679;SDS011;9989;48.962;9.182;2023-05-07T05:59:49;9.37;;;4.90;;
19679;SDS011;9989;48.962;9.182;2023-05-07T06:02:15;9.20;;;4.43;;
19679;SDS011;9989;48.962;9.182;2023-05-07T06:04:40;7.97;;;4.53;;
19679;SDS011;9989;48.962;9.182;2023-05-07T06:07:07;8.27;;;3.83;;
19679;SDS011;9989;48.962;9.182;2023-05-07T06:09:33;8.23;;;4.50;;
19679;SDS011;9989;48.962;9.182;2023-05-07T06:11:58;9.37;;;4.97;;
19679;SDS011;9989;48.962;9.182;2023-05-07T06:14:24;9.27;;;5.43;;
19679;SDS011;9989;48.962;9.182;2023-05-07T06:16:50;8.97;;;4.93;;
19679;SDS011;9989;48.962;9.182;2023-05-07T06:19:15;12.20;;;6.57;;
19679;SDS011;9989;48.962;9.182;2023-05-07T06:21:43;11.00;;;5.30;;
19679;SDS011;9989;48.962;9.182;2023-05-07T06:24:08;11.53;;;4.90;;
19679;SDS011;9989;48.962;9.182;2023-05-07T06:26:35;8.20;;;4.60;;
19679;SDS011;9989;48.962;9.182;2023-05-07T06:29:00;7.80;;;3.80;;
19679;SDS011;9989;48.962;9.182;2023-05-07T06:31:28;8.60;;;4.40;;
19679;SDS011;9989;48.962;9.182;2023-05-07T06:33:56;7.03;;;3.90;;
19679;SDS011;9989;48.962;9.182;2023-05-07T06:36:22;9.80;;;5.83;;
19679;SDS011;9989;48.962;9.182;2023-05-07T06:38:47;10.00;;;5.33;;
19679;SDS011;9989;48.962;9.182;2023-05-07T06:41:13;8.50;;;4.17;;
19679;SDS011;9989;48.962;9.182;2023-05-07T06:43:39;8.57;;;4.03;;
19679;SDS011;9989;48.962;9.182;2023-05-07T06:46:04;6.50;;;3.27;;
19679;SDS011;9989;48.962;9.182;2023-05-07T06:48:30;6.90;;;3.63;;
19679;SDS011;9989;48.962;9.182;2023-05-07T06:50:56;10.20;;;4.10;;
19679;SDS011;9989;48.962;9.182;2023-05-07T06:53:22;7.33;;;3.93;;
19679;SDS011;9989;48.962;9.182;2023-05-07T06:55:48;8.27;;;4.47;;
19679;SDS011;9989;48.962;9.182;2023-05-07T06:58:14;10.73;;;5.03;;
19679;SDS011;9989;48.962;9.182;2023-05-07T07:00:40;11.57;;;6.87;;
19679;SDS011;9989;48.962;9.182;2023-05-07T07:03:06;11.13;;;6.10;;
19679;SDS011;9989;48.962;9.182;2023-05-07T07:05:32;9.67;;;5.13;;
19679;SDS011;9989;48.962;9.182;2023-05-07T07:07:57;9.17;;;4.60;;
19679;SDS011;9989;48.962;9.182;2023-05-07T07:10:23;7.90;;;3.80;;
19679;SDS011;9989;48.962;9.182;2023-05-07T07:12:49;8.00;;;4.57;;
19679;SDS011;9989;48.962;9.182;2023-05-07T07:15:15;9.50;;;4.97;;
19679;SDS011;9989;48.962;9.182;2023-05-07T07:17:41;7.37;;;3.70;;
19679;SDS011;9989;48.962;9.182;2023-05-07T07:20:07;7.70;;;3.90;;
19679;SDS011;9989;48.962;9.182;2023-05-07T07:22:33;10.07;;;3.90;;
19679;SDS011;9989;48.962;9.182;2023-05-07T07:24:59;9.30;;;4.20;;
19679;SDS011;9989;48.962;9.182;2023-05-07T07:27:25;6.90;;;3.63;;
19679;SDS011;9989;48.962;9.182;2023-05-07T07:29:50;7.33;;;3.97;;
19679;SDS011;9989;48.962;9.182;2023-05-07T07:32:16;6.50;;;3.53;;
19679;SDS011;9989;48.962;9.182;2023-05-07T07:34:42;8.07;;;4.30;;
19679;SDS011;9989;48.962;9.182;2023-05-07T07:37:07;9.10;;;3.67;;
19679;SDS011;9989;48.962;9.182;2023-05-07T07:39:33;10.07;;;4.30;;
19679;SDS011;9989;48.962;9.182;2023-05-07T07:41:59;8.23;;;4.10;;
19679;SDS011;9989;48.962;9.182;2023-05-07T07:44:25;8.40;;;4.20;;
19679;SDS011;9989;48.962;9.182;2023-05-07T07:46:51;7.17;;;3.80;;
19679;SDS011;9989;48.962;9.182;2023-05-07T07:49:16;7.13;;;3.20;;
19679;SDS011;9989;48.962;9.182;2023-05-07T07:51:42;6.87;;;3.47;;
19679;SDS011;9989;48.962;9.182;2023-05-07T07:54:08;7.00;;;3.40;;
19679;SDS011;9989;48.962;9.182;2023-05-07T07:56:34;7.30;;;3.77;;
19679;SDS011;9989;48.962;9.182;2023-05-07T07:59:00;10.47;;;4.10;;
19679;SDS011;9989;48.962;9.182;2023-05-07T08:01:26;6.47;;;3.00;;
19679;SDS011;9989;48.962;9.182;2023-05-07T08:03:52;6.73;;;3.03;;
19679;SDS011;9989;48.962;9.182;2023-05-07T08:06:17;6.30;;;3.23;;
19679;SDS011;9989;48.962;9.182;2023-05-07T08:08:43;6.90;;;4.10;;
19679;SDS011;9989;48.962;9.182;2023-05-07T08:11:09;7.13;;;3.80;;
19679;SDS011;9989;48.962;9.182;2023-05-07T08:13:35;7.00;;;3.43;;
19679;SDS011;9989;48.962;9.182;2023-05-07T08:16:04;6.40;;;3.30;;
19679;SDS011;9989;48.962;9.182;2023-05-07T08:18:30;5.77;;;2.80;;
19679;SDS011;9989;48.962;9.182;2023-05-07T08:20:56;5.43;;;2.87;;
19679;SDS011;9989;48.962;9.182;2023-05-07T08:23:22;8.53;;;3.10;;
19679;SDS011;9989;48.962;9.182;2023-05-07T08:25:48;6.63;;;2.70;;
19679;SDS011;9989;48.962;9.182;2023-05-07T08:28:14;6.50;;;3.20;;
19679;SDS011;9989;48.962;9.182;2023-05-07T08:30:40;7.03;;;3.63;;
19679;SDS011;9989;48.962;9.182;2023-05-07T08:33:06;9.47;;;3.53;;
19679;SDS011;9989;48.962;9.182;2023-05-07T08:35:34;6.00;;;3.13;;
19679;SDS011;9989;48.962;9.182;2023-05-07T08:38:03;5.17;;;2.60;;
19679;SDS011;9989;48.962;9.182;2023-05-07T08:40:29;5.27;;;2.43;;
19679;SDS011;9989;48.962;9.182;2023-05-07T08:43:04;6.63;;;2.83;;
19679;SDS011;9989;48.962;9.182;2023-05-07T08:45:31;7.60;;;3.47;;
19679;SDS011;9989;48.962;9.182;2023-05-07T08:47:58;7.20;;;3.17;;
19679;SDS011;9989;48.962;9.182;2023-05-07T08:50:26;5.27;;;2.67;;
19679;SDS011;9989;48.962;9.182;2023-05-07T08:52:52;6.73;;;2.77;;
19679;SDS011;9989;48.962;9.182;2023-05-07T08:55:18;5.93;;;2.67;;
19679;SDS011;9989;48.962;9.182;2023-05-07T08:57:45;5.20;;;2.50;;
19679;SDS011;9989;48.962;9.182;2023-05-07T09:00:12;6.87;;;2.63;;
19679;SDS011;9989;48.962;9.182;2023-05-07T09:02:38;4.80;;;2.40;;
19679;SDS011;9989;48.962;9.182;2023-05-07T09:05:03;6.93;;;3.60;;
19679;SDS011;9989;48.962;9.182;2023-05-07T09:07:30;7.27;;;4.00;;
19679;SDS011;9989;48.962;9.182;2023-05-07T09:09:55;7.40;;;4.27;;
19679;SDS011;9989;48.962;9.182;2023-05-07T09:12:22;7.00;;;3.20;;
19679;SDS011;9989;48.962;9.182;2023-05-07T09:14:47;7.50;;;3.70;;
19679;SDS011;9989;48.962;9.182;2023-05-07T09:17:15;6.13;;;3.27;;
19679;SDS011;9989;48.962;9.182;2023-05-07T09:19:41;4.33;;;2.40;;
19679;SDS011;9989;48.962;9.182;2023-05-07T09:22:09;5.10;;;2.80;;
19679;SDS011;9989;48.962;9.182;2023-05-07T09:24:35;6.93;;;3.40;;
19679;SDS011;9989;48.962;9.182;2023-05-07T09:27:03;5.33;;;2.67;;
19679;SDS011;9989;48.962;9.182;2023-05-07T09:29:30;6.60;;;3.23;;
19679;SDS011;9989;48.962;9.182;2023-05-07T09:32:03;6.03;;;3.03;;
19679;SDS011;9989;48.962;9.182;2023-05-07T09:34:30;6.63;;;3.33;;
19679;SDS011;9989;48.962;9.182;2023-05-07T09:36:58;8.50;;;3.40;;
19679;SDS011;9989;48.962;9.182;2023-05-07T09:39:26;5.83;;;3.00;;
19679;SDS011;9989;48.962;9.182;2023-05-07T09:41:51;6.00;;;3.20;;
19679;SDS011;9989;48.962;9.182;2023-05-07T09:44:19;6.17;;;3.23;;
19679;SDS011;9989;48.962;9.182;2023-05-07T09:46:46;6.20;;;3.10;;
19679;SDS011;9989;48.962;9.182;2023-05-07T09:49:20;6.37;;;2.67;;
19679;SDS011;9989;48.962;9.182;2023-05-07T09:51:48;6.37;;;3.30;;
19679;SDS011;9989;48.962;9.182;2023-05-07T09:54:15;6.77;;;3.50;;
19679;SDS011;9989;48.962;9.182;2023-05-07T09:56:44;6.53;;;3.40;;
19679;SDS011;9989;48.962;9.182;2023-05-07T09:59:12;6.87;;;3.57;;
19679;SDS011;9989;48.962;9.182;2023-05-07T10:01:40;7.67;;;3.40;;
19679;SDS011;9989;48.962;9.182;2023-05-07T10:04:07;7.17;;;3.63;;
19679;SDS011;9989;48.962;9.182;2023-05-07T10:06:35;7.57;;;4.10;;
19679;SDS011;9989;48.962;9.182;2023-05-07T10:09:03;7.50;;;3.60;;
19679;SDS011;9989;48.962;9.182;2023-05-07T10:11:31;9.80;;;4.77;;
19679;SDS011;9989;48.962;9.182;2023-05-07T10:13:59;10.10;;;3.27;;
19679;SDS011;9989;48.962;9.182;2023-05-07T10:16:26;8.90;;;3.43;;
19679;SDS011;9989;48.962;9.182;2023-05-07T10:18:57;6.90;;;3.50;;
19679;SDS011;9989;48.962;9.182;2023-05-07T10:21:23;6.50;;;3.37;;
19679;SDS011;9989;48.962;9.182;2023-05-07T10:23:54;6.73;;;3.30;;
19679;SDS011;9989;48.962;9.182;2023-05-07T10:26:31;10.40;;;3.70;;
19679;SDS011;9989;48.962;9.182;2023-05-07T10:29:06;8.03;;;3.90;;
19679;SDS011;9989;48.962;9.182;2023-05-07T10:34:56;7.47;;;3.50;;
19679;SDS011;9989;48.962;9.182;2023-05-07T10:37:26;6.40;;;3.53;;
19679;SDS011;9989;48.962;9.182;2023-05-07T10:39:52;5.87;;;2.90;;
19679;SDS011;9989;48.962;9.182;2023-05-07T10:42:18;9.63;;;3.90;;
19679;SDS011;9989;48.962;9.182;2023-05-07T10:44:43;5.47;;;2.80;;
19679;SDS011;9989;48.962;9.182;2023-05-07T10:47:11;6.53;;;3.40;;
19679;SDS011;9989;48.962;9.182;2023-05-07T10:52:14;6.63;;;2.73;;
19679;SDS011;9989;48.962;9.182;2023-05-07T10:54:44;6.80;;;3.40;;
19679;SDS011;9989;48.962;9.182;2023-05-07T11:00:02;6.03;;;3.40;;
19679;SDS011;9989;48.962;9.182;2023-05-07T11:05:29;5.63;;;3.23;;
19679;SDS011;9989;48.962;9.182;2023-05-07T11:13:14;5.83;;;2.90;;
19679;SDS011;9989;48.962;9.182;2023-05-07T11:15:43;5.60;;;2.73;;
19679;SDS011;9989;48.962;9.182;2023-05-07T11:18:11;5.33;;;2.53;;
19679;SDS011;9989;48.962;9.182;2023-05-07T11:26:00;6.30;;;2.80;;
19679;SDS011;9989;48.962;9.182;2023-05-07T11:28:36;9.63;;;3.07;;
19679;SDS011;9989;48.962;9.182;2023-05-07T11:31:03;7.33;;;3.00;;
19679;SDS011;9989;48.962;9.182;2023-05-07T11:33:33;4.43;;;2.37;;
19679;SDS011;9989;48.962;9.182;2023-05-07T11:35:59;8.47;;;3.00;;
19679;SDS011;9989;48.962;9.182;2023-05-07T11:38:25;6.73;;;3.50;;
19679;SDS011;9989;48.962;9.182;2023-05-07T11:40:52;6.33;;;3.23;;
19679;SDS011;9989;48.962;9.182;2023-05-07T11:43:18;6.13;;;3.17;;
19679;SDS011;9989;48.962;9.182;2023-05-07T11:45:45;7.80;;;2.90;;
19679;SDS011;9989;48.962;9.182;2023-05-07T11:48:12;5.97;;;2.67;;
19679;SDS011;9989;48.962;9.182;2023-05-07T11:51:03;7.63;;;2.97;;
19679;SDS011;9989;48.962;9.182;2023-05-07T11:53:36;6.83;;;2.57;;
19679;SDS011;9989;48.962;9.182;2023-05-07T11:56:07;6.23;;;2.90;;
19679;SDS011;9989;48.962;9.182;2023-05-07T11:58:34;6.30;;;3.10;;
19679;SDS011;9989;48.962;9.182;2023-05-07T12:01:00;5.80;;;3.23;;
19679;SDS011;9989;48.962;9.182;2023-05-07T12:03:25;5.57;;;3.10;;
19679;SDS011;9989;48.962;9.182;2023-05-07T12:05:51;5.17;;;2.73;;
19679;SDS011;9989;48.962;9.182;2023-05-07T12:08:17;5.20;;;2.70;;
19679;SDS011;9989;48.962;9.182;2023-05-07T12:10:45;5.53;;;3.30;;
19679;SDS011;9989;48.962;9.182;2023-05-07T12:13:18;4.77;;;2.37;;
19679;SDS011;9989;48.962;9.182;2023-05-07T12:15:51;5.10;;;2.70;;
19679;SDS011;9989;48.962;9.182;2023-05-07T12:18:18;7.47;;;3.33;;
19679;SDS011;9989;48.962;9.182;2023-05-07T12:20:45;8.10;;;3.40;;
19679;SDS011;9989;48.962;9.182;2023-05-07T12:23:11;6.03;;;3.03;;
19679;SDS011;9989;48.962;9.182;2023-05-07T12:25:38;6.53;;;2.80;;
19679;SDS011;9989;48.962;9.182;2023-05-07T12:28:05;5.40;;;2.80;;
19679;SDS011;9989;48.962;9.182;2023-05-07T12:30:36;9.17;;;3.30;;
19679;SDS011;9989;48.962;9.182;2023-05-07T12:33:02;5.63;;;2.90;;
19679;SDS011;9989;48.962;9.182;2023-05-07T12:35:28;5.27;;;2.77;;
19679;SDS011;9989;48.962;9.182;2023-05-07T12:37:58;5.20;;;2.40;;
19679;SDS011;9989;48.962;9.182;2023-05-07T12:40:33;6.10;;;2.90;;
19679;SDS011;9989;48.962;9.182;2023-05-07T12:45:46;6.17;;;2.80;;
19679;SDS011;9989;48.962;9.182;2023-05-07T12:48:14;3.83;;;2.23;;
19679;SDS011;9989;48.962;9.182;2023-05-07T12:50:39;5.37;;;2.73;;
19679;SDS011;9989;48.962;9.182;2023-05-07T12:53:06;7.03;;;3.20;;
19679;SDS011;9989;48.962;9.182;2023-05-07T12:55:43;5.73;;;3.23;;
19679;SDS011;9989;48.962;9.182;2023-05-07T13:00:41;5.43;;;2.87;;
19679;SDS011;9989;48.962;9.182;2023-05-07T13:03:08;5.60;;;3.00;;
19679;SDS011;9989;48.962;9.182;2023-05-07T13:05:34;6.17;;;2.93;;
19679;SDS011;9989;48.962;9.182;2023-05-07T13:08:00;7.87;;;3.30;;
19679;SDS011;9989;48.962;9.182;2023-05-07T13:10:27;7.13;;;3.77;;
19679;SDS011;9989;48.962;9.182;2023-05-07T13:12:53;5.23;;;3.13;;
19679;SDS011;9989;48.962;9.182;2023-05-07T13:15:19;6.17;;;3.17;;
19679;SDS011;9989;48.962;9.182;2023-05-07T13:17:45;6.73;;;2.97;;
19679;SDS011;9989;48.962;9.182;2023-05-07T13:20:10;6.03;;;3.10;;
19679;SDS011;9989;48.962;9.182;2023-05-07T13:22:37;7.90;;;3.87;;
19679;SDS011;9989;48.962;9.182;2023-05-07T13:25:04;8.10;;;3.60;;
19679;SDS011;9989;48.962;9.182;2023-05-07T13:27:30;7.43;;;3.77;;
19679;SDS011;9989;48.962;9.182;2023-05-07T13:29:56;6.67;;;3.70;;
19679;SDS011;9989;48.962;9.182;2023-05-07T13:32:22;6.23;;;3.57;;
19679;SDS011;9989;48.962;9.182;2023-05-07T13:34:48;7.40;;;3.40;;
19679;SDS011;9989;48.962;9.182;2023-05-07T13:37:13;13.13;;;3.50;;
19679;SDS011;9989;48.962;9.182;2023-05-07T13:39:39;5.93;;;3.00;;
19679;SDS011;9989;48.962;9.182;2023-05-07T13:42:05;5.23;;;2.50;;
19679;SDS011;9989;48.962;9.182;2023-05-07T13:44:31;6.13;;;2.90;;
19679;SDS011;9989;48.962;9.182;2023-05-07T13:46:57;5.60;;;2.73;;
19679;SDS011;9989;48.962;9.182;2023-05-07T13:49:22;4.53;;;2.10;;
19679;SDS011;9989;48.962;9.182;2023-05-07T13:51:49;5.87;;;2.30;;
19679;SDS011;9989;48.962;9.182;2023-05-07T13:54:14;7.00;;;2.20;;
19679;SDS011;9989;48.962;9.182;2023-05-07T13:56:40;4.27;;;2.10;;
19679;SDS011;9989;48.962;9.182;2023-05-07T13:59:06;5.10;;;1.77;;
19679;SDS011;9989;48.962;9.182;2023-05-07T14:01:32;5.00;;;1.73;;
19679;SDS011;9989;48.962;9.182;2023-05-07T14:03:58;4.30;;;1.97;;
19679;SDS011;9989;48.962;9.182;2023-05-07T14:06:24;5.03;;;2.30;;
19679;SDS011;9989;48.962;9.182;2023-05-07T14:08:50;4.83;;;2.40;;
19679;SDS011;9989;48.962;9.182;2023-05-07T14:11:16;2.80;;;1.57;;
19679;SDS011;9989;48.962;9.182;2023-05-07T14:13:41;3.80;;;1.80;;
19679;SDS011;9989;48.962;9.182;2023-05-07T14:16:07;4.27;;;1.67;;
19679;SDS011;9989;48.962;9.182;2023-05-07T14:18:33;6.37;;;2.07;;
19679;SDS011;9989;48.962;9.182;2023-05-07T14:21:00;4.00;;;1.93;;
19679;SDS011;9989;48.962;9.182;2023-05-07T14:23:25;6.50;;;2.10;;
19679;SDS011;9989;48.962;9.182;2023-05-07T14:25:52;3.40;;;1.80;;
19679;SDS011;9989;48.962;9.182;2023-05-07T14:28:18;4.63;;;2.00;;
19679;SDS011;9989;48.962;9.182;2023-05-07T14:30:44;5.47;;;2.00;;
19679;SDS011;9989;48.962;9.182;2023-05-07T14:33:09;7.87;;;2.90;;
19679;SDS011;9989;48.962;9.182;2023-05-07T14:35:35;6.83;;;2.57;;
19679;SDS011;9989;48.962;9.182;2023-05-07T14:38:01;5.30;;;2.30;;
19679;SDS011;9989;48.962;9.182;2023-05-07T14:40:26;6.50;;;2.60;;
19679;SDS011;9989;48.962;9.182;2023-05-07T14:42:52;6.17;;;2.93;;
19679;SDS011;9989;48.962;9.182;2023-05-07T14:45:18;5.93;;;2.70;;
19679;SDS011;9989;48.962;9.182;2023-05-07T14:47:46;8.33;;;3.20;;
19679;SDS011;9989;48.962;9.182;2023-05-07T14:50:11;5.73;;;2.77;;
19679;SDS011;9989;48.962;9.182;2023-05-07T14:52:37;7.83;;;3.30;;
19679;SDS011;9989;48.962;9.182;2023-05-07T14:55:03;8.53;;;4.00;;
19679;SDS011;9989;48.962;9.182;2023-05-07T14:57:29;6.23;;;2.90;;
19679;SDS011;9989;48.962;9.182;2023-05-07T14:59:57;9.60;;;3.37;;
19679;SDS011;9989;48.962;9.182;2023-05-07T15:02:23;9.50;;;2.87;;
19679;SDS011;9989;48.962;9.182;2023-05-07T15:04:49;6.77;;;2.60;;
19679;SDS011;9989;48.962;9.182;2023-05-07T15:07:14;7.63;;;2.77;;
19679;SDS011;9989;48.962;9.182;2023-05-07T15:09:43;6.20;;;2.43;;
19679;SDS011;9989;48.962;9.182;2023-05-07T15:12:10;5.60;;;2.50;;
19679;SDS011;9989;48.962;9.182;2023-05-07T15:14:37;5.90;;;2.63;;
19679;SDS011;9989;48.962;9.182;2023-05-07T15:17:03;4.77;;;2.63;;
19679;SDS011;9989;48.962;9.182;2023-05-07T15:19:28;6.23;;;3.10;;
19679;SDS011;9989;48.962;9.182;2023-05-07T15:21:58;4.90;;;2.63;;
19679;SDS011;9989;48.962;9.182;2023-05-07T15:24:27;5.80;;;2.93;;